createdAt,value
2019-04-06T00:02:12.272Z,2.75
2019-04-06T00:04:39.908Z,4.15
2019-04-06T00:07:07.176Z,2.37
2019-04-06T00:09:34.445Z,1.47
2019-04-06T00:12:02.047Z,3.60
2019-04-06T00:14:29.241Z,9.93
2019-04-06T00:16:56.453Z,4.00
2019-04-06T00:19:23.993Z,8.73
2019-04-06T00:21:51.188Z,5.05
2019-04-06T00:24:18.384Z,3.67
2019-04-06T00:26:45.649Z,3.02
2019-04-06T00:29:12.914Z,4.97
2019-04-06T00:31:53.885Z,4.75
2019-04-06T00:34:21.152Z,3.22
2019-04-06T00:36:48.428Z,10.10
2019-04-06T00:39:15.754Z,11.70
2019-04-06T00:41:43.022Z,6.60
2019-04-06T00:44:10.293Z,3.92
2019-04-06T00:46:37.536Z,8.55
2019-04-06T00:49:04.834Z,4.05
2019-04-06T00:51:32.100Z,7.67
2019-04-06T00:53:59.476Z,6.35
2019-04-06T00:56:26.672Z,7.28
2019-04-06T00:58:53.874Z,6.20
2019-04-06T01:01:21.607Z,8.08
2019-04-06T01:03:48.930Z,21.00
2019-04-06T01:06:16.208Z,19.45
2019-04-06T01:08:43.485Z,17.87
2019-04-06T01:11:11.016Z,11.38
2019-04-06T01:13:38.492Z,9.60
2019-04-06T01:16:05.961Z,8.00
2019-04-06T01:18:33.157Z,5.20
2019-04-06T01:21:00.353Z,9.68
2019-04-06T01:23:27.762Z,7.33
2019-04-06T01:26:06.401Z,10.03
2019-04-06T01:28:23.944Z,8.33
2019-04-06T01:30:51.222Z,5.67
2019-04-06T01:33:18.473Z,6.25
2019-04-06T01:35:45.930Z,15.93
2019-04-06T01:38:13.309Z,7.70
2019-04-06T01:40:40.678Z,15.70
2019-04-06T01:43:08.132Z,8.43
2019-04-06T01:45:35.512Z,11.43
2019-04-06T01:48:02.704Z,7.62
2019-04-06T01:50:29.901Z,8.78
2019-04-06T01:52:57.218Z,14.03
2019-04-06T01:55:24.421Z,7.37
2019-04-06T01:57:51.686Z,4.33
2019-04-06T02:00:19.281Z,3.30
2019-04-06T02:02:48.189Z,2.42
2019-04-06T02:05:15.460Z,3.67
2019-04-06T02:07:42.852Z,1.75
2019-04-06T02:10:10.050Z,1.62
2019-04-06T02:12:37.292Z,9.23
2019-04-06T02:15:05.196Z,9.55
2019-04-06T02:17:32.484Z,3.05
2019-04-06T02:19:59.681Z,1.87
2019-04-06T02:22:26.908Z,3.17
2019-04-06T02:24:54.102Z,2.65
2019-04-06T02:27:21.370Z,4.37
2019-04-06T02:29:50.862Z,2.50
2019-04-06T02:32:19.765Z,0.88
2019-04-06T02:35:07.047Z,1.40
2019-04-06T02:37:38.859Z,0.98
2019-04-06T02:40:24.832Z,0.80
2019-04-06T02:42:53.741Z,0.65
2019-04-06T02:45:20.938Z,1.10
2019-04-06T02:47:48.329Z,0.50
2019-04-06T02:50:15.628Z,0.53
2019-04-06T02:52:42.852Z,0.40
2019-04-06T02:55:10.156Z,0.93
2019-04-06T02:57:37.353Z,0.50
2019-04-06T03:00:06.363Z,0.28
2019-04-06T03:02:34.128Z,0.62
2019-04-06T03:05:01.389Z,0.90
2019-04-06T03:07:28.593Z,1.15
2019-04-06T03:09:55.892Z,0.88
2019-04-06T03:12:23.443Z,0.60
2019-04-06T03:14:50.720Z,0.98
2019-04-06T03:17:18.185Z,3.27
2019-04-06T03:19:45.377Z,7.37
2019-04-06T03:22:12.597Z,5.62
2019-04-06T03:24:39.797Z,3.70
2019-04-06T03:27:07.354Z,2.77
2019-04-06T03:29:34.617Z,2.98
2019-04-06T03:32:01.903Z,10.35
2019-04-06T03:34:29.189Z,3.90
2019-04-06T03:36:56.456Z,1.85
2019-04-06T03:39:23.685Z,2.33
2019-04-06T03:41:50.949Z,3.83
2019-04-06T03:44:18.175Z,9.55
2019-04-06T03:46:45.537Z,9.10
2019-04-06T03:49:13.049Z,11.63
2019-04-06T03:51:40.748Z,12.58
2019-04-06T03:54:07.979Z,10.15
2019-04-06T03:56:35.501Z,6.03
2019-04-06T03:59:02.814Z,3.70
2019-04-06T04:01:30.081Z,3.27
2019-04-06T04:03:57.644Z,1.77
2019-04-06T04:06:25.035Z,1.12
2019-04-06T04:08:52.335Z,1.40
2019-04-06T04:11:19.538Z,1.50
2019-04-06T04:13:46.841Z,0.75
2019-04-06T04:16:14.210Z,0.65
2019-04-06T04:18:41.512Z,1.27
2019-04-06T04:21:08.782Z,0.72
2019-04-06T04:23:36.003Z,0.75
2019-04-06T04:26:03.277Z,0.47
2019-04-06T04:28:30.580Z,0.40
2019-04-06T04:30:57.847Z,0.62
2019-04-06T04:33:25.066Z,0.62
2019-04-06T04:35:52.513Z,0.37
2019-04-06T04:38:19.735Z,0.40
2019-04-06T04:40:47.005Z,0.50
2019-04-06T04:43:14.425Z,0.55
2019-04-06T04:45:41.679Z,0.45
2019-04-06T04:48:08.966Z,1.60
2019-04-06T04:50:36.249Z,1.32
2019-04-06T04:53:03.439Z,1.47
2019-04-06T04:55:30.668Z,6.83
2019-04-06T04:57:57.968Z,7.65
2019-04-06T05:00:25.369Z,6.27
2019-04-06T05:02:52.608Z,2.50
2019-04-06T05:05:19.911Z,0.63
2019-04-06T05:07:47.105Z,1.02
2019-04-06T05:10:14.757Z,1.10
2019-04-06T05:12:41.964Z,1.07
2019-04-06T05:15:22.644Z,1.27
2019-04-06T05:17:50.177Z,1.70
2019-04-06T05:20:17.411Z,1.50
2019-04-06T05:22:44.664Z,1.02
2019-04-06T05:25:12.301Z,1.42
2019-04-06T05:27:50.841Z,0.78
2019-04-06T05:30:08.583Z,0.98
2019-04-06T05:32:35.853Z,1.72
2019-04-06T05:35:03.747Z,1.05
2019-04-06T05:37:30.976Z,0.70
2019-04-06T05:39:58.959Z,9.43
2019-04-06T05:42:26.189Z,2.95
2019-04-06T05:44:53.460Z,5.05
2019-04-06T05:47:20.941Z,4.90
2019-04-06T05:49:48.397Z,7.55
2019-04-06T05:52:15.622Z,5.95
2019-04-06T05:54:42.853Z,12.78
2019-04-06T05:57:10.074Z,10.08
2019-04-06T05:59:40.285Z,3.67
2019-04-06T06:02:07.822Z,2.20
2019-04-06T06:04:35.314Z,6.72
2019-04-06T06:07:02.610Z,9.33
2019-04-06T06:09:30.066Z,4.97
2019-04-06T06:11:57.368Z,2.55
2019-04-06T06:14:24.645Z,15.15
2019-04-06T06:16:52.156Z,8.58
2019-04-06T06:19:19.477Z,14.70
2019-04-06T06:21:46.784Z,14.78
2019-04-06T06:24:13.980Z,16.20
2019-04-06T06:26:41.531Z,15.98
2019-04-06T06:29:08.724Z,5.90
2019-04-06T06:31:36.122Z,8.20
2019-04-06T06:34:03.431Z,3.83
2019-04-06T06:36:30.723Z,6.37
2019-04-06T06:38:57.921Z,5.37
2019-04-06T06:41:25.264Z,5.87
2019-04-06T06:43:52.502Z,5.60
2019-04-06T06:46:20.100Z,16.07
2019-04-06T06:48:47.409Z,9.60
2019-04-06T06:51:14.600Z,14.07
2019-04-06T06:53:41.826Z,12.28
2019-04-06T06:56:09.024Z,19.20
2019-04-06T06:58:36.508Z,16.65
2019-04-06T07:01:03.799Z,9.43
2019-04-06T07:03:31.105Z,19.07
2019-04-06T07:05:58.299Z,16.48
2019-04-06T07:08:25.599Z,34.73
2019-04-06T07:10:52.804Z,39.60
2019-04-06T07:13:20.038Z,23.27
2019-04-06T07:15:47.241Z,21.45
2019-04-06T07:18:14.468Z,10.35
2019-04-06T07:20:41.664Z,20.95
2019-04-06T07:23:09.150Z,35.43
2019-04-06T07:25:36.709Z,24.37
2019-04-06T07:28:03.934Z,45.63
2019-04-06T07:30:31.506Z,28.52
2019-04-06T07:32:59.001Z,28.52
2019-04-06T07:35:26.396Z,41.00
2019-04-06T07:37:53.756Z,37.65
2019-04-06T07:40:21.028Z,33.05
2019-04-06T07:42:48.327Z,34.43
2019-04-06T07:45:15.536Z,24.80
2019-04-06T07:47:42.779Z,25.85
2019-04-06T07:50:10.051Z,24.40
2019-04-06T07:52:37.391Z,30.30
2019-04-06T07:55:05.497Z,24.92
2019-04-06T07:57:33.247Z,32.40
2019-04-06T08:00:00.461Z,46.00
2019-04-06T08:02:27.664Z,26.23
2019-04-06T08:04:55.157Z,46.13
2019-04-06T08:07:22.623Z,22.30
2019-04-06T08:09:49.913Z,27.62
2019-04-06T08:12:17.112Z,19.55
2019-04-06T08:14:44.358Z,19.52
2019-04-06T08:17:11.635Z,41.60
2019-04-06T08:19:38.938Z,45.05
2019-04-06T08:22:06.403Z,38.02
2019-04-06T08:24:33.972Z,36.65
2019-04-06T08:27:01.441Z,45.33
2019-04-06T08:29:28.670Z,47.60
2019-04-06T08:31:55.959Z,48.05
2019-04-06T08:34:23.707Z,37.30
2019-04-06T08:36:51.099Z,47.58
2019-04-06T08:39:18.459Z,44.35
2019-04-06T08:41:45.736Z,52.08
2019-04-06T08:44:12.959Z,34.92
2019-04-06T08:46:40.429Z,38.85
2019-04-06T08:49:07.954Z,47.75
2019-04-06T08:51:35.483Z,40.65
2019-04-06T08:54:02.720Z,31.40
2019-04-06T08:56:29.943Z,46.23
2019-04-06T08:58:57.238Z,49.77
2019-04-06T09:01:24.458Z,43.58
2019-04-06T09:03:52.001Z,38.08
2019-04-06T09:06:19.576Z,44.83
2019-04-06T09:08:46.778Z,33.83
2019-04-06T09:11:14.013Z,36.45
2019-04-06T09:13:41.576Z,44.67
2019-04-06T09:16:08.877Z,42.75
2019-04-06T09:18:36.076Z,38.42
2019-04-06T09:21:03.317Z,45.03
2019-04-06T09:23:30.516Z,50.75
2019-04-06T09:25:57.829Z,53.23
2019-04-06T09:28:25.375Z,35.70
2019-04-06T09:30:52.841Z,42.83
2019-04-06T09:33:20.092Z,34.08
2019-04-06T09:35:47.333Z,45.28
2019-04-06T09:38:20.259Z,30.57
2019-04-06T09:40:48.375Z,20.00
2019-04-06T09:43:15.616Z,33.58
2019-04-06T09:45:50.641Z,29.57
2019-04-06T09:48:35.891Z,26.75
2019-04-06T09:51:04.998Z,36.70
2019-04-06T09:53:33.844Z,24.50
2019-04-06T09:56:08.625Z,27.15
2019-04-06T09:58:49.488Z,40.00
2019-04-06T10:01:36.934Z,28.10
2019-04-06T10:03:57.753Z,31.25
2019-04-06T10:06:32.575Z,31.00
2019-04-06T10:09:04.409Z,35.10
2019-04-06T10:11:49.680Z,32.47
2019-04-06T10:14:30.551Z,21.20
2019-04-06T10:17:08.650Z,29.15
2019-04-06T10:19:42.948Z,30.02
2019-04-06T10:22:11.797Z,25.25
2019-04-06T10:24:49.813Z,38.75
2019-04-06T10:27:18.668Z,40.05
2019-04-06T10:29:56.594Z,40.80
2019-04-06T10:32:37.426Z,39.75
2019-04-06T10:35:15.394Z,31.55
2019-04-06T10:37:46.968Z,32.40
2019-04-06T10:40:15.860Z,35.90
2019-04-06T10:42:54.092Z,40.78
2019-04-06T10:45:25.830Z,30.45
2019-04-06T10:47:54.784Z,31.60
2019-04-06T10:50:26.628Z,24.52
2019-04-06T10:52:58.304Z,37.58
2019-04-06T10:55:29.972Z,26.37
2019-04-06T10:58:10.697Z,22.98
2019-04-06T11:00:55.893Z,24.40
2019-04-06T11:03:24.997Z,22.35
2019-04-06T11:05:59.644Z,19.98
2019-04-06T11:08:44.642Z,30.85
2019-04-06T11:11:16.360Z,28.67
2019-04-06T11:13:53.523Z,19.42
2019-04-06T11:16:40.845Z,22.45
2019-04-06T11:19:25.799Z,22.15
2019-04-06T11:22:09.768Z,33.60
2019-04-06T11:24:47.892Z,28.62
2019-04-06T11:27:22.368Z,23.15
2019-04-06T11:29:54.224Z,32.40
2019-04-06T11:32:39.211Z,33.13
2019-04-06T11:35:08.248Z,26.35
2019-04-06T11:37:43.238Z,27.05
2019-04-06T11:40:24.525Z,21.87
2019-04-06T11:42:59.198Z,31.48
2019-04-06T11:45:40.259Z,36.35
2019-04-06T11:48:15.209Z,31.20
2019-04-06T11:50:44.100Z,27.17
2019-04-06T11:53:29.132Z,34.15
2019-04-06T11:56:01.037Z,29.18
2019-04-06T11:58:32.849Z,27.13
2019-04-06T12:01:07.520Z,29.03
2019-04-06T12:03:39.378Z,29.65
2019-04-06T12:06:23.449Z,38.35
2019-04-06T12:08:55.280Z,34.30
2019-04-06T12:11:27.187Z,26.50
2019-04-06T12:14:05.078Z,31.37
2019-04-06T12:16:42.536Z,33.58
2019-04-06T12:19:20.453Z,32.73
2019-04-06T12:22:05.737Z,34.83
2019-04-06T12:24:37.479Z,33.25
2019-04-06T12:27:12.584Z,32.43
2019-04-06T12:29:44.333Z,36.95
2019-04-06T12:32:13.525Z,33.55
2019-04-06T12:34:42.683Z,30.80
2019-04-06T12:37:20.407Z,36.93
2019-04-06T12:39:55.469Z,32.80
2019-04-06T12:42:42.048Z,28.90
2019-04-06T12:45:26.353Z,31.35
2019-04-06T12:48:11.803Z,31.95
2019-04-06T12:50:40.757Z,28.55
2019-04-06T12:53:09.623Z,29.25
2019-04-06T12:55:53.633Z,28.87
2019-04-06T12:58:40.733Z,28.30
2019-04-06T13:01:09.859Z,23.00
2019-04-06T13:03:50.759Z,26.52
2019-04-06T13:06:36.061Z,24.87
2019-04-06T13:09:24.080Z,27.50
2019-04-06T13:11:53.124Z,22.90
2019-04-06T13:14:33.843Z,23.00
2019-04-06T13:17:03.081Z,15.95
2019-04-06T13:19:32.272Z,20.52
2019-04-06T13:22:01.113Z,13.03
2019-04-06T13:24:30.153Z,22.62
2019-04-06T13:27:01.935Z,23.60
2019-04-06T13:29:31.055Z,16.45
2019-04-06T13:32:06.172Z,17.87
2019-04-06T13:34:38.090Z,22.48
2019-04-06T13:37:23.324Z,30.50
2019-04-06T13:40:08.334Z,25.95
2019-04-06T13:42:37.244Z,29.67
2019-04-06T13:45:07.492Z,26.80
2019-04-06T13:47:36.760Z,27.48
2019-04-06T13:50:10.072Z,28.83
2019-04-06T13:52:55.293Z,33.60
2019-04-06T13:55:40.806Z,37.07
2019-04-06T13:58:10.038Z,26.37
2019-04-06T14:00:48.042Z,27.87
2019-04-06T14:03:16.959Z,28.02
2019-04-06T14:06:02.001Z,26.70
2019-04-06T14:08:47.133Z,28.40
2019-04-06T14:11:32.129Z,32.55
2019-04-06T14:14:16.136Z,25.23
2019-04-06T14:16:45.008Z,19.45
2019-04-06T14:19:16.397Z,26.75
2019-04-06T14:21:48.538Z,22.73
2019-04-06T14:24:33.829Z,23.45
2019-04-06T14:27:18.873Z,22.52
2019-04-06T14:29:47.918Z,24.63
2019-04-06T14:32:16.837Z,25.75
2019-04-06T14:34:51.716Z,25.85
2019-04-06T14:37:20.618Z,23.95
2019-04-06T14:40:07.338Z,22.93
2019-04-06T14:42:36.493Z,24.07
2019-04-06T14:45:15.707Z,21.82
2019-04-06T14:48:00.793Z,17.10
2019-04-06T14:50:30.010Z,15.88
2019-04-06T14:53:15.379Z,19.95
2019-04-06T14:55:44.506Z,22.55
2019-04-06T14:58:13.866Z,25.25
2019-04-06T15:00:45.578Z,23.47
2019-04-06T15:03:32.630Z,17.70
2019-04-06T15:06:18.162Z,16.80
2019-04-06T15:08:50.224Z,22.10
2019-04-06T15:11:25.369Z,20.70
2019-04-06T15:13:57.751Z,18.27
2019-04-06T15:16:26.725Z,19.77
2019-04-06T15:19:12.578Z,24.18
2019-04-06T15:21:41.517Z,20.43
2019-04-06T15:24:13.804Z,16.00
2019-04-06T15:26:58.826Z,19.67
2019-04-06T15:29:27.782Z,16.87
2019-04-06T15:31:59.753Z,14.98
2019-04-06T15:34:31.634Z,14.55
2019-04-06T15:37:12.677Z,11.57
2019-04-06T15:39:42.005Z,10.80
2019-04-06T15:42:19.884Z,10.63
2019-04-06T15:44:57.689Z,7.95
2019-04-06T15:47:38.522Z,7.62
2019-04-06T15:50:17.003Z,7.14
2019-04-06T15:52:52.261Z,13.15
2019-04-06T15:55:37.299Z,12.60
2019-04-06T15:58:09.491Z,9.05
2019-04-06T16:00:38.401Z,6.53
2019-04-06T16:03:19.038Z,5.00
2019-04-06T16:05:47.997Z,5.22
2019-04-06T16:08:16.968Z,3.40
2019-04-06T16:11:03.250Z,4.00
2019-04-06T16:13:43.990Z,9.95
2019-04-06T16:16:13.315Z,8.55
2019-04-06T16:18:52.296Z,8.08
2019-04-06T16:21:39.034Z,11.95
2019-04-06T16:24:08.430Z,9.60
2019-04-06T16:26:43.730Z,10.08
2019-04-06T16:29:21.997Z,14.90
2019-04-06T16:32:10.155Z,13.25
2019-04-06T16:34:42.211Z,9.83
2019-04-06T16:37:23.525Z,7.37
2019-04-06T16:39:58.233Z,7.72
2019-04-06T16:42:39.370Z,5.72
2019-04-06T16:45:26.526Z,4.40
2019-04-06T16:48:01.633Z,3.20
2019-04-06T16:50:40.029Z,3.20
2019-04-06T16:53:20.627Z,2.00
2019-04-06T16:55:49.948Z,2.17
2019-04-06T16:58:35.482Z,3.92
2019-04-06T17:01:20.963Z,2.75
2019-04-06T17:03:57.124Z,2.02
2019-04-06T17:06:26.444Z,1.80
2019-04-06T17:08:55.447Z,1.42
2019-04-06T17:14:53.247Z,2.60
2019-04-06T17:20:54.450Z,3.15
2019-04-06T17:23:38.969Z,2.40
2019-04-06T17:26:08.357Z,2.52
2019-04-06T17:28:53.673Z,2.33
2019-04-06T17:31:22.821Z,2.12
2019-04-06T17:33:54.515Z,3.37
2019-04-06T17:36:29.969Z,2.30
2019-04-06T17:39:01.635Z,3.25
2019-04-06T17:41:34.456Z,3.02
2019-04-06T17:44:20.092Z,3.00
2019-04-06T17:46:52.701Z,3.62
2019-04-06T17:49:33.766Z,3.22
2019-04-06T17:52:05.677Z,3.20
2019-04-06T17:54:50.838Z,2.87
2019-04-06T18:00:29.799Z,3.85
2019-04-06T18:03:16.259Z,3.02
2019-04-06T18:06:01.784Z,3.52
2019-04-06T18:08:34.051Z,3.42
2019-04-06T18:11:03.305Z,3.40
2019-04-06T18:13:49.942Z,4.25
2019-04-06T18:16:18.635Z,3.37
2019-04-06T18:18:47.879Z,3.60
2019-04-06T18:21:16.986Z,3.33
2019-04-06T18:29:18.492Z,2.20
2019-04-06T18:31:51.880Z,3.33
2019-04-06T18:34:21.684Z,2.10
2019-04-06T18:39:51.645Z,2.95
2019-04-06T18:42:18.927Z,3.30
2019-04-06T18:44:46.631Z,3.40
2019-04-06T18:47:13.900Z,4.05
2019-04-06T18:49:41.192Z,3.10
2019-04-06T18:52:08.592Z,2.40
2019-04-06T18:54:35.896Z,3.02
2019-04-06T18:57:03.354Z,3.52
2019-04-06T18:59:30.691Z,2.98
2019-04-06T19:01:58.884Z,3.33
2019-04-06T19:04:26.158Z,5.35
2019-04-06T19:06:53.439Z,4.03
2019-04-06T19:09:24.017Z,3.10
2019-04-06T19:11:55.463Z,3.70
2019-04-06T19:14:18.508Z,3.45
2019-04-06T19:16:45.953Z,3.35
2019-04-06T19:19:13.769Z,2.52
2019-04-06T19:21:41.108Z,2.72
2019-04-06T19:24:08.820Z,4.55
2019-04-06T19:26:37.987Z,3.08
2019-04-06T19:29:05.031Z,6.15
2019-04-06T19:31:32.675Z,2.85
2019-04-06T19:34:00.498Z,3.27
2019-04-06T19:36:27.824Z,3.10
2019-04-06T19:38:55.274Z,3.08
2019-04-06T19:41:22.532Z,2.55
2019-04-06T19:43:50.077Z,2.45
2019-04-06T19:46:17.852Z,3.40
2019-04-06T19:48:45.144Z,2.72
2019-04-06T19:51:12.365Z,3.98
2019-04-06T19:53:40.038Z,5.30
2019-04-06T19:56:07.736Z,4.50
2019-04-06T19:58:34.991Z,4.42
2019-04-06T20:01:02.215Z,4.70
2019-04-06T20:03:35.796Z,4.42
2019-04-06T20:05:58.631Z,4.55
2019-04-06T20:08:25.892Z,5.28
2019-04-06T20:10:53.157Z,5.78
2019-04-06T20:13:21.040Z,3.50
2019-04-06T20:15:49.096Z,4.20
2019-04-06T20:18:16.444Z,2.87
2019-04-06T20:20:44.165Z,2.30
2019-04-06T20:23:11.389Z,2.00
2019-04-06T20:25:38.584Z,1.30
2019-04-06T20:28:06.669Z,1.72
2019-04-06T20:30:33.888Z,3.52
2019-04-06T20:33:01.643Z,2.30
2019-04-06T20:35:28.991Z,1.90
2019-04-06T20:37:56.546Z,3.63
2019-04-06T20:40:24.269Z,2.33
2019-04-06T20:42:51.652Z,2.12
2019-04-06T20:45:19.194Z,2.93
2019-04-06T20:47:46.592Z,3.02
2019-04-06T20:50:14.481Z,1.75
2019-04-06T20:52:42.316Z,2.40
2019-04-06T20:55:10.106Z,1.60
2019-04-06T20:57:37.475Z,1.82
2019-04-06T21:00:07.451Z,2.02
2019-04-06T21:02:35.164Z,1.50
2019-04-06T21:05:03.031Z,1.60
2019-04-06T21:07:30.893Z,1.72
2019-04-06T21:09:58.165Z,1.32
2019-04-06T21:12:25.585Z,1.67
2019-04-06T21:14:54.308Z,2.55
2019-04-06T21:17:21.821Z,2.37
2019-04-06T21:19:49.517Z,4.55
2019-04-06T21:22:17.260Z,3.77
2019-04-06T21:24:44.964Z,3.50
2019-04-06T21:27:12.518Z,4.03
2019-04-06T21:29:39.821Z,3.10
2019-04-06T21:32:07.390Z,4.97
2019-04-06T21:34:34.962Z,4.67
2019-04-06T21:37:03.004Z,5.47
2019-04-06T21:39:30.689Z,3.70
2019-04-06T21:41:58.140Z,4.47
2019-04-06T21:44:25.587Z,5.30
2019-04-06T21:46:53.629Z,6.35
2019-04-06T21:49:21.153Z,4.37
2019-04-06T21:51:49.112Z,4.28
2019-04-06T21:54:16.308Z,5.00
2019-04-06T21:56:43.626Z,6.08
2019-04-06T21:59:11.115Z,5.47
2019-04-06T22:01:38.637Z,6.70
2019-04-06T22:04:06.499Z,6.92
2019-04-06T22:06:33.821Z,7.33
2019-04-06T22:09:01.467Z,10.13
2019-04-06T22:11:28.948Z,9.78
2019-04-06T22:13:56.647Z,7.00
2019-04-06T22:16:24.561Z,8.58
2019-04-06T22:18:52.084Z,10.68
2019-04-06T22:21:19.313Z,8.40
2019-04-06T22:23:47.366Z,8.00
2019-04-06T22:26:15.077Z,7.15
2019-04-06T22:28:42.425Z,6.05
2019-04-06T22:31:09.952Z,5.10
2019-04-06T22:33:38.206Z,8.98
2019-04-06T22:36:05.448Z,6.47
2019-04-06T22:38:33.156Z,4.87
2019-04-06T22:41:00.465Z,4.87
2019-04-06T22:43:28.233Z,4.67
2019-04-06T22:45:55.516Z,3.22
2019-04-06T22:48:23.143Z,6.50
2019-04-06T22:50:50.822Z,6.08
2019-04-06T22:53:18.049Z,5.22
2019-04-06T22:55:45.850Z,4.95
2019-04-06T22:58:13.104Z,4.33
2019-04-06T23:00:41.932Z,4.17
2019-04-06T23:03:13.721Z,4.70
2019-04-06T23:05:42.610Z,4.92
2019-04-06T23:08:09.825Z,4.60
2019-04-06T23:10:37.336Z,4.65
2019-04-06T23:13:04.588Z,6.15
2019-04-06T23:15:32.556Z,4.67
2019-04-06T23:18:00.332Z,6.25
2019-04-06T23:20:27.809Z,8.20
2019-04-06T23:22:55.084Z,7.28
2019-04-06T23:25:22.432Z,6.50
2019-04-06T23:27:49.900Z,5.33
2019-04-06T23:30:17.169Z,5.73
2019-04-06T23:32:44.409Z,4.80
2019-04-06T23:35:11.602Z,4.10
2019-04-06T23:37:39.175Z,5.62
2019-04-06T23:40:06.682Z,5.53
2019-04-06T23:42:34.227Z,6.15
2019-04-06T23:45:01.504Z,6.42
2019-04-06T23:47:28.881Z,4.72
2019-04-06T23:49:56.277Z,5.53
2019-04-06T23:52:24.023Z,11.68
2019-04-06T23:54:52.051Z,15.60
2019-04-06T23:57:19.679Z,10.82
2019-04-06T23:59:46.976Z,10.63
